Liverpool, Illinois
Current Conditions -  °F | °C
As of 7:36 PM on Monday 22 Dec 2014 (Local Time) from KPIA Reporting Station
Light Rain Light Rain  
Wind Chill: 41°   Ceiling: 500
Heat Index: 46°   Visibility: 4mi
Dew Point: 43°   Wind: 9mph
Humidity: 89%   Direction: 140°SE
Pressure: 29.56"   Gusts: NA
Location:  40.39°N, 90°W
Report Text: KPIA 230136Z 14008KT 4SM -RA BR OVC005 08/06 A2956 RMK AO2 P0001 T00780061
Loading
Personal Weather Stations






























Interactive Weather Map New forecast layout! Learn more

10-Day Weather Forecast

Advertisements
Track Severe Weather on mobile